sensor_id;sensor_type;location;lat;lon;timestamp;temperature;humidity
592;DHT22;283;53.608;10.046;2022-08-06T00:02:19;14.10;99.90
592;DHT22;283;53.608;10.046;2022-08-06T00:04:51;14.00;99.90
592;DHT22;283;53.608;10.046;2022-08-06T00:07:19;14.10;99.90
592;DHT22;283;53.608;10.046;2022-08-06T00:09:51;14.10;99.90
592;DHT22;283;53.608;10.046;2022-08-06T00:12:29;14.00;99.90
592;DHT22;283;53.608;10.046;2022-08-06T00:15:01;14.00;99.90
592;DHT22;283;53.608;10.046;2022-08-06T00:17:38;14.00;99.90
592;DHT22;283;53.608;10.046;2022-08-06T00:20:07;14.00;99.90
592;DHT22;283;53.608;10.046;2022-08-06T00:22:36;13.90;99.90
592;DHT22;283;53.608;10.046;2022-08-06T00:25:07;13.90;99.90
592;DHT22;283;53.608;10.046;2022-08-06T00:27:38;13.90;99.90
592;DHT22;283;53.608;10.046;2022-08-06T00:30:09;13.80;99.90
592;DHT22;283;53.608;10.046;2022-08-06T00:32:46;13.90;99.90
592;DHT22;283;53.608;10.046;2022-08-06T00:35:19;13.90;99.90
592;DHT22;283;53.608;10.046;2022-08-06T00:37:50;13.80;99.90
592;DHT22;283;53.608;10.046;2022-08-06T00:40:25;13.80;99.90
592;DHT22;283;53.608;10.046;2022-08-06T00:42:56;13.80;99.90
592;DHT22;283;53.608;10.046;2022-08-06T00:45:28;13.70;99.90
592;DHT22;283;53.608;10.046;2022-08-06T00:47:57;13.70;99.90
592;DHT22;283;53.608;10.046;2022-08-06T00:50:29;13.70;99.90
592;DHT22;283;53.608;10.046;2022-08-06T00:52:57;13.80;99.90
592;DHT22;283;53.608;10.046;2022-08-06T00:55:27;13.70;99.90
592;DHT22;283;53.608;10.046;2022-08-06T00:58:03;13.70;99.90
592;DHT22;283;53.608;10.046;2022-08-06T01:00:31;13.70;99.90
592;DHT22;283;53.608;10.046;2022-08-06T01:03:06;13.70;99.90
592;DHT22;283;53.608;10.046;2022-08-06T01:05:53;13.80;99.90
592;DHT22;283;53.608;10.046;2022-08-06T01:08:41;13.80;99.90
592;DHT22;283;53.608;10.046;2022-08-06T01:11:11;13.70;99.90
592;DHT22;283;53.608;10.046;2022-08-06T01:13:40;13.70;99.90
592;DHT22;283;53.608;10.046;2022-08-06T01:16:36;13.70;99.90
592;DHT22;283;53.608;10.046;2022-08-06T01:22:47;13.60;99.90
592;DHT22;283;53.608;10.046;2022-08-06T01:28:58;13.50;99.90
592;DHT22;283;53.608;10.046;2022-08-06T01:31:32;13.50;99.90
592;DHT22;283;53.608;10.046;2022-08-06T01:34:09;13.50;99.90
592;DHT22;283;53.608;10.046;2022-08-06T01:36:44;13.40;99.90
592;DHT22;283;53.608;10.046;2022-08-06T01:39:16;13.40;99.90
592;DHT22;283;53.608;10.046;2022-08-06T01:42:05;13.40;99.90
592;DHT22;283;53.608;10.046;2022-08-06T01:44:39;13.30;99.90
592;DHT22;283;53.608;10.046;2022-08-06T01:47:12;13.40;99.90
592;DHT22;283;53.608;10.046;2022-08-06T01:49:46;13.40;99.90
592;DHT22;283;53.608;10.046;2022-08-06T01:52:31;13.40;99.90
592;DHT22;283;53.608;10.046;2022-08-06T01:55:07;13.40;99.90
592;DHT22;283;53.608;10.046;2022-08-06T01:57:43;13.40;99.90
592;DHT22;283;53.608;10.046;2022-08-06T02:00:38;13.30;99.90
592;DHT22;283;53.608;10.046;2022-08-06T02:03:18;13.30;99.90
592;DHT22;283;53.608;10.046;2022-08-06T02:05:49;13.30;99.90
592;DHT22;283;53.608;10.046;2022-08-06T02:08:27;13.30;99.90
592;DHT22;283;53.608;10.046;2022-08-06T02:11:07;13.30;99.90
592;DHT22;283;53.608;10.046;2022-08-06T02:13:58;13.30;99.90
592;DHT22;283;53.608;10.046;2022-08-06T02:21:45;13.20;99.90
592;DHT22;283;53.608;10.046;2022-08-06T02:24:19;13.20;99.90
592;DHT22;283;53.608;10.046;2022-08-06T02:26:50;13.20;99.90
592;DHT22;283;53.608;10.046;2022-08-06T02:29:20;13.10;99.90
592;DHT22;283;53.608;10.046;2022-08-06T02:31:51;13.20;99.90
592;DHT22;283;53.608;10.046;2022-08-06T02:34:20;13.20;99.90
592;DHT22;283;53.608;10.046;2022-08-06T02:36:58;13.20;99.90
592;DHT22;283;53.608;10.046;2022-08-06T02:39:37;13.20;99.90
592;DHT22;283;53.608;10.046;2022-08-06T02:42:21;13.20;99.90
592;DHT22;283;53.608;10.046;2022-08-06T02:44:59;13.10;99.90
592;DHT22;283;53.608;10.046;2022-08-06T02:47:32;13.00;99.90
592;DHT22;283;53.608;10.046;2022-08-06T02:50:24;13.10;99.90
592;DHT22;283;53.608;10.046;2022-08-06T02:53:02;13.00;99.90
592;DHT22;283;53.608;10.046;2022-08-06T02:55:47;13.00;99.90
592;DHT22;283;53.608;10.046;2022-08-06T02:58:19;13.00;99.90
592;DHT22;283;53.608;10.046;2022-08-06T03:01:04;13.00;99.90
592;DHT22;283;53.608;10.046;2022-08-06T03:03:35;12.90;99.90
592;DHT22;283;53.608;10.046;2022-08-06T03:06:21;12.90;99.90
592;DHT22;283;53.608;10.046;2022-08-06T03:08:55;12.90;99.90
592;DHT22;283;53.608;10.046;2022-08-06T03:11:25;12.80;99.90
592;DHT22;283;53.608;10.046;2022-08-06T03:13:59;12.80;99.90
592;DHT22;283;53.608;10.046;2022-08-06T03:16:39;12.80;99.90
592;DHT22;283;53.608;10.046;2022-08-06T03:19:17;12.90;99.90
592;DHT22;283;53.608;10.046;2022-08-06T03:22:07;12.90;99.90
592;DHT22;283;53.608;10.046;2022-08-06T03:24:46;12.90;99.90
592;DHT22;283;53.608;10.046;2022-08-06T03:27:17;12.80;99.90
592;DHT22;283;53.608;10.046;2022-08-06T03:29:48;12.90;99.90
592;DHT22;283;53.608;10.046;2022-08-06T03:32:28;12.80;99.90
592;DHT22;283;53.608;10.046;2022-08-06T03:35:16;12.80;99.90
592;DHT22;283;53.608;10.046;2022-08-06T03:38:06;12.80;99.90
592;DHT22;283;53.608;10.046;2022-08-06T03:40:36;12.80;99.90
592;DHT22;283;53.608;10.046;2022-08-06T03:43:06;12.70;99.90
592;DHT22;283;53.608;10.046;2022-08-06T03:45:45;12.70;99.90
592;DHT22;283;53.608;10.046;2022-08-06T03:48:24;12.70;99.90
592;DHT22;283;53.608;10.046;2022-08-06T03:51:06;12.70;99.90
592;DHT22;283;53.608;10.046;2022-08-06T03:53:36;12.70;99.90
592;DHT22;283;53.608;10.046;2022-08-06T03:56:18;12.70;99.90
592;DHT22;283;53.608;10.046;2022-08-06T03:59:00;12.70;99.90
592;DHT22;283;53.608;10.046;2022-08-06T04:01:33;12.70;99.90
592;DHT22;283;53.608;10.046;2022-08-06T04:04:16;12.70;99.90
592;DHT22;283;53.608;10.046;2022-08-06T04:06:53;12.70;99.90
592;DHT22;283;53.608;10.046;2022-08-06T04:09:23;12.70;99.90
592;DHT22;283;53.608;10.046;2022-08-06T04:12:13;12.70;99.90
592;DHT22;283;53.608;10.046;2022-08-06T04:15:03;12.70;99.90
592;DHT22;283;53.608;10.046;2022-08-06T04:17:36;12.70;99.90
592;DHT22;283;53.608;10.046;2022-08-06T04:20:08;12.80;99.90
592;DHT22;283;53.608;10.046;2022-08-06T04:22:37;12.80;99.90
592;DHT22;283;53.608;10.046;2022-08-06T04:25:27;12.80;99.90
592;DHT22;283;53.608;10.046;2022-08-06T04:27:58;12.80;99.90
592;DHT22;283;53.608;10.046;2022-08-06T04:30:27;12.80;99.90
592;DHT22;283;53.608;10.046;2022-08-06T04:32:55;12.80;99.90
592;DHT22;283;53.608;10.046;2022-08-06T04:35:27;12.80;99.90
592;DHT22;283;53.608;10.046;2022-08-06T04:38:19;12.90;99.90
592;DHT22;283;53.608;10.046;2022-08-06T04:40:56;12.90;99.90
592;DHT22;283;53.608;10.046;2022-08-06T04:43:30;13.00;99.90
592;DHT22;283;53.608;10.046;2022-08-06T04:46:17;13.00;99.90
592;DHT22;283;53.608;10.046;2022-08-06T04:48:46;13.10;99.90
592;DHT22;283;53.608;10.046;2022-08-06T04:51:23;13.20;99.90
592;DHT22;283;53.608;10.046;2022-08-06T04:54:11;13.20;99.90
592;DHT22;283;53.608;10.046;2022-08-06T04:56:41;13.30;99.90
592;DHT22;283;53.608;10.046;2022-08-06T04:59:17;13.30;99.90
592;DHT22;283;53.608;10.046;2022-08-06T05:01:46;13.30;99.90
592;DHT22;283;53.608;10.046;2022-08-06T05:04:25;13.40;99.90
592;DHT22;283;53.608;10.046;2022-08-06T05:06:59;13.50;99.90
592;DHT22;283;53.608;10.046;2022-08-06T05:09:29;13.50;99.90
592;DHT22;283;53.608;10.046;2022-08-06T05:12:16;13.50;99.90
592;DHT22;283;53.608;10.046;2022-08-06T05:14:54;13.60;99.90
592;DHT22;283;53.608;10.046;2022-08-06T05:17:29;13.70;99.90
592;DHT22;283;53.608;10.046;2022-08-06T05:20:06;13.70;99.90
592;DHT22;283;53.608;10.046;2022-08-06T05:22:54;13.70;99.90
592;DHT22;283;53.608;10.046;2022-08-06T05:25:29;13.80;99.90
592;DHT22;283;53.608;10.046;2022-08-06T05:28:02;13.90;99.90
592;DHT22;283;53.608;10.046;2022-08-06T05:30:43;14.00;99.90
592;DHT22;283;53.608;10.046;2022-08-06T05:33:11;14.10;99.90
592;DHT22;283;53.608;10.046;2022-08-06T05:35:49;14.20;99.90
592;DHT22;283;53.608;10.046;2022-08-06T05:38:31;14.30;99.90
592;DHT22;283;53.608;10.046;2022-08-06T05:41:04;14.50;99.90
592;DHT22;283;53.608;10.046;2022-08-06T05:43:33;14.80;99.90
592;DHT22;283;53.608;10.046;2022-08-06T05:46:23;15.20;99.90
592;DHT22;283;53.608;10.046;2022-08-06T05:48:55;15.50;99.90
592;DHT22;283;53.608;10.046;2022-08-06T05:51:42;15.70;99.90
592;DHT22;283;53.608;10.046;2022-08-06T05:54:20;15.90;99.90
592;DHT22;283;53.608;10.046;2022-08-06T05:56:51;16.10;99.90
592;DHT22;283;53.608;10.046;2022-08-06T05:59:33;16.30;99.90
592;DHT22;283;53.608;10.046;2022-08-06T06:02:25;16.50;99.90
592;DHT22;283;53.608;10.046;2022-08-06T06:04:58;16.60;99.90
592;DHT22;283;53.608;10.046;2022-08-06T06:07:47;16.60;99.90
592;DHT22;283;53.608;10.046;2022-08-06T06:10:35;16.60;99.90
592;DHT22;283;53.608;10.046;2022-08-06T06:13:09;16.50;99.90
592;DHT22;283;53.608;10.046;2022-08-06T06:16:04;16.50;99.90
592;DHT22;283;53.608;10.046;2022-08-06T06:18:54;16.50;99.90
592;DHT22;283;53.608;10.046;2022-08-06T06:21:32;16.50;99.90
592;DHT22;283;53.608;10.046;2022-08-06T06:24:12;16.40;99.90
592;DHT22;283;53.608;10.046;2022-08-06T06:26:48;16.40;99.90
592;DHT22;283;53.608;10.046;2022-08-06T06:29:28;16.30;99.90
592;DHT22;283;53.608;10.046;2022-08-06T06:32:28;16.40;99.90
592;DHT22;283;53.608;10.046;2022-08-06T06:35:07;16.50;99.90
592;DHT22;283;53.608;10.046;2022-08-06T06:37:44;16.40;99.90
592;DHT22;283;53.608;10.046;2022-08-06T06:43:31;16.20;99.90
592;DHT22;283;53.608;10.046;2022-08-06T06:46:19;16.30;99.90
592;DHT22;283;53.608;10.046;2022-08-06T06:49:11;16.30;99.90
592;DHT22;283;53.608;10.046;2022-08-06T06:52:05;16.40;99.90
592;DHT22;283;53.608;10.046;2022-08-06T06:54:40;16.50;99.90
592;DHT22;283;53.608;10.046;2022-08-06T06:57:15;16.60;99.90
592;DHT22;283;53.608;10.046;2022-08-06T06:59:51;16.60;99.90
592;DHT22;283;53.608;10.046;2022-08-06T07:02:40;16.60;99.90
592;DHT22;283;53.608;10.046;2022-08-06T07:05:10;16.60;99.90
592;DHT22;283;53.608;10.046;2022-08-06T07:07:45;16.70;99.90
592;DHT22;283;53.608;10.046;2022-08-06T07:10:15;16.70;99.90
592;DHT22;283;53.608;10.046;2022-08-06T07:12:45;16.80;99.90
592;DHT22;283;53.608;10.046;2022-08-06T07:15:19;16.90;99.90
592;DHT22;283;53.608;10.046;2022-08-06T07:17:50;17.00;99.90
592;DHT22;283;53.608;10.046;2022-08-06T07:20:27;17.20;99.90
592;DHT22;283;53.608;10.046;2022-08-06T07:23:00;17.30;99.90
592;DHT22;283;53.608;10.046;2022-08-06T07:25:49;17.20;99.90
592;DHT22;283;53.608;10.046;2022-08-06T07:28:22;17.30;99.90
592;DHT22;283;53.608;10.046;2022-08-06T07:30:55;17.40;99.90
592;DHT22;283;53.608;10.046;2022-08-06T07:33:34;17.60;99.90
592;DHT22;283;53.608;10.046;2022-08-06T07:36:24;17.80;99.90
592;DHT22;283;53.608;10.046;2022-08-06T07:38:59;18.10;99.90
592;DHT22;283;53.608;10.046;2022-08-06T07:41:29;18.40;99.90
592;DHT22;283;53.608;10.046;2022-08-06T07:44:20;18.80;99.90
592;DHT22;283;53.608;10.046;2022-08-06T07:46:55;19.00;99.90
592;DHT22;283;53.608;10.046;2022-08-06T07:49:29;19.30;99.90
592;DHT22;283;53.608;10.046;2022-08-06T07:52:21;19.50;99.90
592;DHT22;283;53.608;10.046;2022-08-06T07:54:54;19.50;99.90
592;DHT22;283;53.608;10.046;2022-08-06T07:57:24;19.40;99.90
592;DHT22;283;53.608;10.046;2022-08-06T08:00:06;19.30;99.90
592;DHT22;283;53.608;10.046;2022-08-06T08:02:40;19.00;99.90
592;DHT22;283;53.608;10.046;2022-08-06T08:05:28;18.80;99.90
592;DHT22;283;53.608;10.046;2022-08-06T08:08:27;18.70;99.90
592;DHT22;283;53.608;10.046;2022-08-06T08:10:57;18.60;99.90
592;DHT22;283;53.608;10.046;2022-08-06T08:13:25;18.50;99.90
592;DHT22;283;53.608;10.046;2022-08-06T08:16:09;18.50;99.90
592;DHT22;283;53.608;10.046;2022-08-06T08:18:46;18.50;99.90
592;DHT22;283;53.608;10.046;2022-08-06T08:21:18;18.50;99.90
592;DHT22;283;53.608;10.046;2022-08-06T08:23:49;18.40;99.90
592;DHT22;283;53.608;10.046;2022-08-06T08:26:22;18.40;99.90
592;DHT22;283;53.608;10.046;2022-08-06T08:28:51;18.30;99.90
592;DHT22;283;53.608;10.046;2022-08-06T08:31:19;18.40;99.90
592;DHT22;283;53.608;10.046;2022-08-06T08:33:52;18.30;99.90
592;DHT22;283;53.608;10.046;2022-08-06T08:36:21;18.30;99.90
592;DHT22;283;53.608;10.046;2022-08-06T08:38:56;18.40;99.90
592;DHT22;283;53.608;10.046;2022-08-06T08:41:30;18.40;99.90
592;DHT22;283;53.608;10.046;2022-08-06T08:44:20;18.40;99.90
592;DHT22;283;53.608;10.046;2022-08-06T08:46:56;18.50;99.90
592;DHT22;283;53.608;10.046;2022-08-06T08:49:28;18.60;99.90
592;DHT22;283;53.608;10.046;2022-08-06T08:52:01;18.80;99.90
592;DHT22;283;53.608;10.046;2022-08-06T08:54:38;18.90;99.90
592;DHT22;283;53.608;10.046;2022-08-06T08:57:10;19.00;99.90
592;DHT22;283;53.608;10.046;2022-08-06T08:59:59;19.10;99.90
592;DHT22;283;53.608;10.046;2022-08-06T09:02:37;19.30;99.90
592;DHT22;283;53.608;10.046;2022-08-06T09:05:14;19.50;99.90
592;DHT22;283;53.608;10.046;2022-08-06T09:07:42;19.60;99.90
592;DHT22;283;53.608;10.046;2022-08-06T09:10:27;19.60;99.90
592;DHT22;283;53.608;10.046;2022-08-06T09:13:03;19.60;99.90
592;DHT22;283;53.608;10.046;2022-08-06T09:15:52;19.60;99.90
592;DHT22;283;53.608;10.046;2022-08-06T09:18:21;19.70;99.90
592;DHT22;283;53.608;10.046;2022-08-06T09:20:53;19.90;99.90
592;DHT22;283;53.608;10.046;2022-08-06T09:23:23;19.90;99.90
592;DHT22;283;53.608;10.046;2022-08-06T09:26:04;20.00;99.90
592;DHT22;283;53.608;10.046;2022-08-06T09:28:35;20.30;99.90
592;DHT22;283;53.608;10.046;2022-08-06T09:31:05;20.40;99.90
592;DHT22;283;53.608;10.046;2022-08-06T09:33:56;20.40;99.90
592;DHT22;283;53.608;10.046;2022-08-06T09:36:46;20.40;99.90
592;DHT22;283;53.608;10.046;2022-08-06T09:39:29;20.40;99.90
592;DHT22;283;53.608;10.046;2022-08-06T09:42:36;20.50;99.90
592;DHT22;283;53.608;10.046;2022-08-06T09:45:10;20.70;99.90
592;DHT22;283;53.608;10.046;2022-08-06T09:47:43;20.70;99.90
592;DHT22;283;53.608;10.046;2022-08-06T09:50:13;20.80;99.90
592;DHT22;283;53.608;10.046;2022-08-06T09:53:00;20.80;99.90
592;DHT22;283;53.608;10.046;2022-08-06T09:55:40;20.90;99.90
592;DHT22;283;53.608;10.046;2022-08-06T09:58:10;20.80;99.90
592;DHT22;283;53.608;10.046;2022-08-06T10:00:40;20.70;99.90
592;DHT22;283;53.608;10.046;2022-08-06T10:03:16;20.70;99.90
592;DHT22;283;53.608;10.046;2022-08-06T10:06:06;20.60;99.90
592;DHT22;283;53.608;10.046;2022-08-06T10:08:40;20.40;99.90
592;DHT22;283;53.608;10.046;2022-08-06T10:11:08;20.20;99.90
592;DHT22;283;53.608;10.046;2022-08-06T10:13:38;20.10;99.90
592;DHT22;283;53.608;10.046;2022-08-06T10:16:17;20.00;99.90
592;DHT22;283;53.608;10.046;2022-08-06T10:18:48;19.90;99.90
592;DHT22;283;53.608;10.046;2022-08-06T10:21:27;19.90;99.90
592;DHT22;283;53.608;10.046;2022-08-06T10:24:12;20.00;99.90
592;DHT22;283;53.608;10.046;2022-08-06T10:27:02;20.10;99.90
592;DHT22;283;53.608;10.046;2022-08-06T10:29:41;20.30;99.90
592;DHT22;283;53.608;10.046;2022-08-06T10:32:15;20.50;99.90
592;DHT22;283;53.608;10.046;2022-08-06T10:34:44;20.70;99.90
592;DHT22;283;53.608;10.046;2022-08-06T10:37:17;21.00;99.90
592;DHT22;283;53.608;10.046;2022-08-06T10:40:07;21.30;99.90
592;DHT22;283;53.608;10.046;2022-08-06T10:42:37;21.50;99.90
592;DHT22;283;53.608;10.046;2022-08-06T10:45:08;21.50;99.90
592;DHT22;283;53.608;10.046;2022-08-06T10:47:42;21.30;99.90
592;DHT22;283;53.608;10.046;2022-08-06T10:50:30;21.20;99.90
592;DHT22;283;53.608;10.046;2022-08-06T10:53:10;21.00;99.90
592;DHT22;283;53.608;10.046;2022-08-06T10:56:00;20.80;99.90
592;DHT22;283;53.608;10.046;2022-08-06T10:58:31;20.50;99.90
592;DHT22;283;53.608;10.046;2022-08-06T11:01:03;20.30;99.90
592;DHT22;283;53.608;10.046;2022-08-06T11:03:44;20.30;99.90
592;DHT22;283;53.608;10.046;2022-08-06T11:09:29;20.30;99.90
592;DHT22;283;53.608;10.046;2022-08-06T11:12:36;20.40;99.90
592;DHT22;283;53.608;10.046;2022-08-06T11:15:14;20.40;99.90
592;DHT22;283;53.608;10.046;2022-08-06T11:17:44;20.40;99.90
592;DHT22;283;53.608;10.046;2022-08-06T11:20:34;20.40;99.90
592;DHT22;283;53.608;10.046;2022-08-06T11:23:04;20.40;99.90
592;DHT22;283;53.608;10.046;2022-08-06T11:25:38;20.60;99.90
592;DHT22;283;53.608;10.046;2022-08-06T11:28:06;20.70;99.90
592;DHT22;283;53.608;10.046;2022-08-06T11:30:37;20.90;99.90
592;DHT22;283;53.608;10.046;2022-08-06T11:33:08;20.90;99.90
592;DHT22;283;53.608;10.046;2022-08-06T11:35:44;21.00;99.90
592;DHT22;283;53.608;10.046;2022-08-06T11:38:56;21.20;99.90
592;DHT22;283;53.608;10.046;2022-08-06T11:41:48;21.40;99.90
592;DHT22;283;53.608;10.046;2022-08-06T11:44:29;21.30;99.90
592;DHT22;283;53.608;10.046;2022-08-06T11:47:15;21.20;99.90
592;DHT22;283;53.608;10.046;2022-08-06T11:50:03;21.20;99.90
592;DHT22;283;53.608;10.046;2022-08-06T11:52:54;21.30;99.90
592;DHT22;283;53.608;10.046;2022-08-06T11:55:22;21.50;99.90
592;DHT22;283;53.608;10.046;2022-08-06T11:58:17;21.50;99.90
592;DHT22;283;53.608;10.046;2022-08-06T12:00:58;21.40;99.90
592;DHT22;283;53.608;10.046;2022-08-06T12:03:46;21.40;98.60
592;DHT22;283;53.608;10.046;2022-08-06T12:06:21;21.30;98.40
592;DHT22;283;53.608;10.046;2022-08-06T12:09:08;21.20;97.90
592;DHT22;283;53.608;10.046;2022-08-06T12:11:50;21.20;97.00
592;DHT22;283;53.608;10.046;2022-08-06T12:14:41;21.20;97.60
592;DHT22;283;53.608;10.046;2022-08-06T12:17:17;21.10;98.10
592;DHT22;283;53.608;10.046;2022-08-06T12:19:47;21.20;98.20
592;DHT22;283;53.608;10.046;2022-08-06T12:22:30;21.20;98.30
592;DHT22;283;53.608;10.046;2022-08-06T12:25:02;21.20;98.40
592;DHT22;283;53.608;10.046;2022-08-06T12:27:39;21.10;98.80
592;DHT22;283;53.608;10.046;2022-08-06T12:30:17;21.10;95.20
592;DHT22;283;53.608;10.046;2022-08-06T12:33:04;21.10;96.00
592;DHT22;283;53.608;10.046;2022-08-06T12:35:54;21.20;96.10
592;DHT22;283;53.608;10.046;2022-08-06T12:38:25;21.20;96.60
592;DHT22;283;53.608;10.046;2022-08-06T12:40:57;21.30;96.40
592;DHT22;283;53.608;10.046;2022-08-06T12:43:27;21.40;95.60
592;DHT22;283;53.608;10.046;2022-08-06T12:46:15;21.40;96.50
592;DHT22;283;53.608;10.046;2022-08-06T12:48:48;21.30;96.80
592;DHT22;283;53.608;10.046;2022-08-06T12:51:17;21.30;97.10
592;DHT22;283;53.608;10.046;2022-08-06T12:53:55;21.30;96.60
592;DHT22;283;53.608;10.046;2022-08-06T12:56:27;21.40;96.60
592;DHT22;283;53.608;10.046;2022-08-06T12:59:01;21.40;97.30
592;DHT22;283;53.608;10.046;2022-08-06T13:01:33;21.50;96.30
592;DHT22;283;53.608;10.046;2022-08-06T13:04:22;21.60;96.00
592;DHT22;283;53.608;10.046;2022-08-06T13:06:58;21.60;96.30
592;DHT22;283;53.608;10.046;2022-08-06T13:09:28;21.80;95.90
592;DHT22;283;53.608;10.046;2022-08-06T13:12:12;21.80;96.00
592;DHT22;283;53.608;10.046;2022-08-06T13:14:50;21.80;95.90
592;DHT22;283;53.608;10.046;2022-08-06T13:17:26;21.90;95.60
592;DHT22;283;53.608;10.046;2022-08-06T13:20:14;22.00;95.60
592;DHT22;283;53.608;10.046;2022-08-06T13:22:58;22.00;95.00
592;DHT22;283;53.608;10.046;2022-08-06T13:25:26;21.90;95.50
592;DHT22;283;53.608;10.046;2022-08-06T13:28:17;21.90;95.50
592;DHT22;283;53.608;10.046;2022-08-06T13:30:55;21.90;95.10
592;DHT22;283;53.608;10.046;2022-08-06T13:33:33;21.90;94.80
592;DHT22;283;53.608;10.046;2022-08-06T13:36:26;22.00;95.10
592;DHT22;283;53.608;10.046;2022-08-06T13:38:59;22.00;96.00
592;DHT22;283;53.608;10.046;2022-08-06T13:41:33;22.00;96.60
592;DHT22;283;53.608;10.046;2022-08-06T13:44:04;22.00;96.30
592;DHT22;283;53.608;10.046;2022-08-06T13:46:42;22.00;96.20
592;DHT22;283;53.608;10.046;2022-08-06T13:49:17;21.90;96.00
592;DHT22;283;53.608;10.046;2022-08-06T13:51:45;22.00;96.40
592;DHT22;283;53.608;10.046;2022-08-06T13:54:20;22.00;96.60
592;DHT22;283;53.608;10.046;2022-08-06T13:56:49;22.00;97.00
592;DHT22;283;53.608;10.046;2022-08-06T13:59:20;22.00;97.00
592;DHT22;283;53.608;10.046;2022-08-06T14:02:08;22.10;97.30
592;DHT22;283;53.608;10.046;2022-08-06T14:04:37;22.20;97.30
592;DHT22;283;53.608;10.046;2022-08-06T14:07:06;22.20;97.40
592;DHT22;283;53.608;10.046;2022-08-06T14:09:34;22.20;97.70
592;DHT22;283;53.608;10.046;2022-08-06T14:12:22;22.20;97.90
592;DHT22;283;53.608;10.046;2022-08-06T14:14:57;22.20;97.90
592;DHT22;283;53.608;10.046;2022-08-06T14:17:25;22.20;97.90
592;DHT22;283;53.608;10.046;2022-08-06T14:20:00;22.30;97.90
592;DHT22;283;53.608;10.046;2022-08-06T14:22:39;22.30;97.50
592;DHT22;283;53.608;10.046;2022-08-06T14:25:09;22.40;97.90
592;DHT22;283;53.608;10.046;2022-08-06T14:27:39;22.50;98.30
592;DHT22;283;53.608;10.046;2022-08-06T14:30:13;22.70;98.40
592;DHT22;283;53.608;10.046;2022-08-06T14:32:58;22.80;97.70
592;DHT22;283;53.608;10.046;2022-08-06T14:35:36;22.70;98.00
592;DHT22;283;53.608;10.046;2022-08-06T14:38:17;22.50;98.70
592;DHT22;283;53.608;10.046;2022-08-06T14:40:45;22.50;98.60
592;DHT22;283;53.608;10.046;2022-08-06T14:43:35;22.40;98.80
592;DHT22;283;53.608;10.046;2022-08-06T14:46:28;22.30;98.90
592;DHT22;283;53.608;10.046;2022-08-06T14:48:58;22.10;99.00
592;DHT22;283;53.608;10.046;2022-08-06T14:51:39;21.90;99.00
592;DHT22;283;53.608;10.046;2022-08-06T14:54:27;21.70;99.40
592;DHT22;283;53.608;10.046;2022-08-06T14:56:59;21.50;99.10
592;DHT22;283;53.608;10.046;2022-08-06T14:59:28;21.30;99.50
592;DHT22;283;53.608;10.046;2022-08-06T15:02:09;21.00;99.70
592;DHT22;283;53.608;10.046;2022-08-06T15:04:40;20.90;99.90
592;DHT22;283;53.608;10.046;2022-08-06T15:07:11;20.80;99.90
592;DHT22;283;53.608;10.046;2022-08-06T15:09:51;20.70;99.90
592;DHT22;283;53.608;10.046;2022-08-06T15:12:39;20.80;99.90
592;DHT22;283;53.608;10.046;2022-08-06T15:15:18;20.80;99.90
592;DHT22;283;53.608;10.046;2022-08-06T15:18:03;20.70;99.90
592;DHT22;283;53.608;10.046;2022-08-06T15:20:51;20.80;99.90
592;DHT22;283;53.608;10.046;2022-08-06T15:23:20;20.80;99.90
592;DHT22;283;53.608;10.046;2022-08-06T15:25:56;20.80;99.90
592;DHT22;283;53.608;10.046;2022-08-06T15:28:44;20.90;99.90
592;DHT22;283;53.608;10.046;2022-08-06T15:31:15;21.00;99.90
592;DHT22;283;53.608;10.046;2022-08-06T15:33:47;21.00;99.90
592;DHT22;283;53.608;10.046;2022-08-06T15:36:15;21.00;99.90
592;DHT22;283;53.608;10.046;2022-08-06T15:38:45;21.00;99.90
592;DHT22;283;53.608;10.046;2022-08-06T15:41:14;21.00;99.90
592;DHT22;283;53.608;10.046;2022-08-06T15:43:43;21.10;99.90
592;DHT22;283;53.608;10.046;2022-08-06T15:46:17;21.20;99.90
592;DHT22;283;53.608;10.046;2022-08-06T15:48:56;21.10;99.90
592;DHT22;283;53.608;10.046;2022-08-06T15:51:25;20.90;99.90
592;DHT22;283;53.608;10.046;2022-08-06T15:53:57;20.70;99.90
592;DHT22;283;53.608;10.046;2022-08-06T15:56:26;20.70;99.90
592;DHT22;283;53.608;10.046;2022-08-06T15:59:05;20.80;99.90
592;DHT22;283;53.608;10.046;2022-08-06T16:01:38;20.80;99.90
592;DHT22;283;53.608;10.046;2022-08-06T16:04:28;20.80;99.90
592;DHT22;283;53.608;10.046;2022-08-06T16:07:03;20.90;99.90
592;DHT22;283;53.608;10.046;2022-08-06T16:09:32;20.80;99.90
592;DHT22;283;53.608;10.046;2022-08-06T16:12:20;20.90;99.90
592;DHT22;283;53.608;10.046;2022-08-06T16:14:49;21.10;99.90
592;DHT22;283;53.608;10.046;2022-08-06T16:17:25;21.10;99.90
592;DHT22;283;53.608;10.046;2022-08-06T16:20:15;21.20;99.90
592;DHT22;283;53.608;10.046;2022-08-06T16:22:49;21.30;99.90
592;DHT22;283;53.608;10.046;2022-08-06T16:25:18;21.30;99.90
592;DHT22;283;53.608;10.046;2022-08-06T16:27:48;21.20;99.80
592;DHT22;283;53.608;10.046;2022-08-06T16:30:18;21.10;99.10
592;DHT22;283;53.608;10.046;2022-08-06T16:32:46;21.10;98.40
592;DHT22;283;53.608;10.046;2022-08-06T16:35:16;21.00;98.20
592;DHT22;283;53.608;10.046;2022-08-06T16:37:48;21.00;98.20
592;DHT22;283;53.608;10.046;2022-08-06T16:40:19;21.00;98.30
592;DHT22;283;53.608;10.046;2022-08-06T16:42:47;20.90;98.20
592;DHT22;283;53.608;10.046;2022-08-06T16:45:16;20.70;98.20
592;DHT22;283;53.608;10.046;2022-08-06T16:47:49;20.80;97.90
592;DHT22;283;53.608;10.046;2022-08-06T16:50:39;20.70;97.90
592;DHT22;283;53.608;10.046;2022-08-06T16:53:08;20.80;98.20
592;DHT22;283;53.608;10.046;2022-08-06T16:55:57;20.70;97.80
592;DHT22;283;53.608;10.046;2022-08-06T16:58:25;20.60;97.70
592;DHT22;283;53.608;10.046;2022-08-06T17:01:01;20.50;97.90
592;DHT22;283;53.608;10.046;2022-08-06T17:03:49;20.50;97.60
592;DHT22;283;53.608;10.046;2022-08-06T17:06:38;20.40;97.90
592;DHT22;283;53.608;10.046;2022-08-06T17:09:07;20.30;98.20
592;DHT22;283;53.608;10.046;2022-08-06T17:11:55;20.30;98.10
592;DHT22;283;53.608;10.046;2022-08-06T17:14:28;20.30;98.20
592;DHT22;283;53.608;10.046;2022-08-06T17:16:59;20.20;98.20
592;DHT22;283;53.608;10.046;2022-08-06T17:19:33;20.20;98.60
592;DHT22;283;53.608;10.046;2022-08-06T17:22:22;20.10;98.90
592;DHT22;283;53.608;10.046;2022-08-06T17:24:56;20.00;99.30
592;DHT22;283;53.608;10.046;2022-08-06T17:27:25;19.90;99.80
592;DHT22;283;53.608;10.046;2022-08-06T17:30:14;19.90;99.80
592;DHT22;283;53.608;10.046;2022-08-06T17:32:44;19.90;99.80
592;DHT22;283;53.608;10.046;2022-08-06T17:35:14;19.90;99.90
592;DHT22;283;53.608;10.046;2022-08-06T17:37:46;19.80;99.90
592;DHT22;283;53.608;10.046;2022-08-06T17:40:18;19.80;99.90
592;DHT22;283;53.608;10.046;2022-08-06T17:42:59;19.80;99.90